sensor_id;sensor_type;location;lat;lon;timestamp;P1;durP1;ratioP1;P2;durP2;ratioP2
33644;SDS011;19986;48.190;16.366;2023-05-07T00:00:02;38.13;;;36.22;;
33644;SDS011;19986;48.190;16.366;2023-05-07T00:02:32;36.65;;;34.75;;
33644;SDS011;19986;48.190;16.366;2023-05-07T00:04:57;37.65;;;35.95;;
33644;SDS011;19986;48.190;16.366;2023-05-07T00:07:23;35.95;;;34.08;;
33644;SDS011;19986;48.190;16.366;2023-05-07T00:09:49;37.42;;;35.63;;
33644;SDS011;19986;48.190;16.366;2023-05-07T00:12:15;39.17;;;37.08;;
33644;SDS011;19986;48.190;16.366;2023-05-07T00:14:41;36.50;;;34.60;;
33644;SDS011;19986;48.190;16.366;2023-05-07T00:17:07;38.13;;;36.22;;
33644;SDS011;19986;48.190;16.366;2023-05-07T00:19:32;35.00;;;33.33;;
33644;SDS011;19986;48.190;16.366;2023-05-07T00:21:58;37.80;;;36.00;;
33644;SDS011;19986;48.190;16.366;2023-05-07T00:24:24;36.17;;;34.47;;
33644;SDS011;19986;48.190;16.366;2023-05-07T00:26:50;37.42;;;35.60;;
33644;SDS011;19986;48.190;16.366;2023-05-07T00:29:16;35.00;;;33.33;;
33644;SDS011;19986;48.190;16.366;2023-05-07T00:31:42;36.72;;;34.92;;
33644;SDS011;19986;48.190;16.366;2023-05-07T00:34:07;38.83;;;36.75;;
33644;SDS011;19986;48.190;16.366;2023-05-07T00:36:33;36.78;;;34.88;;
33644;SDS011;19986;48.190;16.366;2023-05-07T00:38:59;36.72;;;34.92;;
33644;SDS011;19986;48.190;16.366;2023-05-07T00:41:27;37.70;;;35.70;;
33644;SDS011;19986;48.190;16.366;2023-05-07T00:43:53;38.90;;;36.90;;
33644;SDS011;19986;48.190;16.366;2023-05-07T00:46:20;35.42;;;33.72;;
33644;SDS011;19986;48.190;16.366;2023-05-07T00:48:46;35.70;;;34.00;;
33644;SDS011;19986;48.190;16.366;2023-05-07T00:51:13;35.70;;;33.90;;
33644;SDS011;19986;48.190;16.366;2023-05-07T00:53:39;37.78;;;35.97;;
33644;SDS011;19986;48.190;16.366;2023-05-07T00:56:05;36.78;;;34.88;;
33644;SDS011;19986;48.190;16.366;2023-05-07T00:58:32;37.63;;;35.83;;
33644;SDS011;19986;48.190;16.366;2023-05-07T01:00:59;39.22;;;37.33;;
33644;SDS011;19986;48.190;16.366;2023-05-07T01:03:25;36.60;;;34.80;;
33644;SDS011;19986;48.190;16.366;2023-05-07T01:05:51;36.65;;;34.65;;
33644;SDS011;19986;48.190;16.366;2023-05-07T01:08:18;37.67;;;35.85;;
33644;SDS011;19986;48.190;16.366;2023-05-07T01:10:45;36.85;;;35.05;;
33644;SDS011;19986;48.190;16.366;2023-05-07T01:13:12;38.30;;;36.38;;
33644;SDS011;19986;48.190;16.366;2023-05-07T01:15:39;39.05;;;37.15;;
33644;SDS011;19986;48.190;16.366;2023-05-07T01:18:06;35.60;;;33.80;;
33644;SDS011;19986;48.190;16.366;2023-05-07T01:20:32;35.88;;;34.17;;
33644;SDS011;19986;48.190;16.366;2023-05-07T01:22:58;37.05;;;35.35;;
33644;SDS011;19986;48.190;16.366;2023-05-07T01:25:25;34.10;;;32.50;;
33644;SDS011;19986;48.190;16.366;2023-05-07T01:27:52;37.95;;;35.90;;
33644;SDS011;19986;48.190;16.366;2023-05-07T01:30:18;36.08;;;34.38;;
33644;SDS011;19986;48.190;16.366;2023-05-07T01:32:53;36.58;;;34.83;;
33644;SDS011;19986;48.190;16.366;2023-05-07T01:35:26;37.28;;;35.58;;
33644;SDS011;19986;48.190;16.366;2023-05-07T01:37:54;36.35;;;34.65;;
33644;SDS011;19986;48.190;16.366;2023-05-07T01:40:22;35.17;;;33.40;;
33644;SDS011;19986;48.190;16.366;2023-05-07T01:42:49;37.03;;;35.00;;
33644;SDS011;19986;48.190;16.366;2023-05-07T01:45:15;37.67;;;35.88;;
33644;SDS011;19986;48.190;16.366;2023-05-07T01:47:41;37.28;;;35.58;;
33644;SDS011;19986;48.190;16.366;2023-05-07T01:50:16;37.00;;;35.30;;
33644;SDS011;19986;48.190;16.366;2023-05-07T01:52:45;36.85;;;35.15;;
33644;SDS011;19986;48.190;16.366;2023-05-07T01:55:12;37.20;;;35.40;;
33644;SDS011;19986;48.190;16.366;2023-05-07T01:57:39;35.58;;;33.78;;
33644;SDS011;19986;48.190;16.366;2023-05-07T02:00:05;38.10;;;36.10;;
33644;SDS011;19986;48.190;16.366;2023-05-07T02:02:31;37.92;;;36.03;;
33644;SDS011;19986;48.190;16.366;2023-05-07T02:04:58;36.00;;;34.33;;
33644;SDS011;19986;48.190;16.366;2023-05-07T02:07:24;39.92;;;38.03;;
33644;SDS011;19986;48.190;16.366;2023-05-07T02:09:50;36.80;;;35.03;;
33644;SDS011;19986;48.190;16.366;2023-05-07T02:12:16;37.80;;;36.00;;
33644;SDS011;19986;48.190;16.366;2023-05-07T02:14:42;36.50;;;34.80;;
33644;SDS011;19986;48.190;16.366;2023-05-07T02:17:09;35.88;;;34.08;;
33644;SDS011;19986;48.190;16.366;2023-05-07T02:19:35;35.88;;;34.10;;
33644;SDS011;19986;48.190;16.366;2023-05-07T02:22:01;36.15;;;34.45;;
33644;SDS011;19986;48.190;16.366;2023-05-07T02:24:26;36.53;;;34.78;;
33644;SDS011;19986;48.190;16.366;2023-05-07T02:26:52;34.33;;;32.67;;
33644;SDS011;19986;48.190;16.366;2023-05-07T02:29:18;37.65;;;35.95;;
33644;SDS011;19986;48.190;16.366;2023-05-07T02:31:44;36.67;;;34.97;;
33644;SDS011;19986;48.190;16.366;2023-05-07T02:34:09;37.15;;;35.45;;
33644;SDS011;19986;48.190;16.366;2023-05-07T02:36:35;38.28;;;36.33;;
33644;SDS011;19986;48.190;16.366;2023-05-07T02:39:01;35.42;;;33.72;;
33644;SDS011;19986;48.190;16.366;2023-05-07T02:41:28;38.38;;;36.50;;
33644;SDS011;19986;48.190;16.366;2023-05-07T02:43:54;38.20;;;36.13;;
33644;SDS011;19986;48.190;16.366;2023-05-07T02:46:20;37.80;;;36.03;;
33644;SDS011;19986;48.190;16.366;2023-05-07T02:48:46;36.40;;;34.70;;
33644;SDS011;19986;48.190;16.366;2023-05-07T02:51:13;37.00;;;35.30;;
33644;SDS011;19986;48.190;16.366;2023-05-07T02:53:39;36.28;;;34.47;;
33644;SDS011;19986;48.190;16.366;2023-05-07T02:56:05;37.60;;;35.80;;
33644;SDS011;19986;48.190;16.366;2023-05-07T02:58:31;37.80;;;35.85;;
33644;SDS011;19986;48.190;16.366;2023-05-07T03:00:57;38.30;;;36.30;;
33644;SDS011;19986;48.190;16.366;2023-05-07T03:03:24;38.72;;;36.72;;
33644;SDS011;19986;48.190;16.366;2023-05-07T03:05:50;39.42;;;37.03;;
33644;SDS011;19986;48.190;16.366;2023-05-07T03:08:17;37.35;;;35.55;;
33644;SDS011;19986;48.190;16.366;2023-05-07T03:10:43;38.20;;;36.30;;
33644;SDS011;19986;48.190;16.366;2023-05-07T03:13:09;40.25;;;38.28;;
33644;SDS011;19986;48.190;16.366;2023-05-07T03:15:35;38.58;;;36.47;;
33644;SDS011;19986;48.190;16.366;2023-05-07T03:18:01;37.38;;;35.13;;
33644;SDS011;19986;48.190;16.366;2023-05-07T03:20:27;39.33;;;37.13;;
33644;SDS011;19986;48.190;16.366;2023-05-07T03:22:53;37.85;;;35.95;;
33644;SDS011;19986;48.190;16.366;2023-05-07T03:25:19;38.55;;;36.42;;
33644;SDS011;19986;48.190;16.366;2023-05-07T03:27:44;38.15;;;36.13;;
33644;SDS011;19986;48.190;16.366;2023-05-07T03:30:10;38.88;;;36.88;;
33644;SDS011;19986;48.190;16.366;2023-05-07T03:32:37;39.40;;;37.38;;
33644;SDS011;19986;48.190;16.366;2023-05-07T03:35:03;39.83;;;37.60;;
33644;SDS011;19986;48.190;16.366;2023-05-07T03:37:29;41.78;;;39.38;;
33644;SDS011;19986;48.190;16.366;2023-05-07T03:39:55;41.70;;;39.40;;
33644;SDS011;19986;48.190;16.366;2023-05-07T03:42:21;41.35;;;39.17;;
33644;SDS011;19986;48.190;16.366;2023-05-07T03:44:47;38.78;;;36.78;;
33644;SDS011;19986;48.190;16.366;2023-05-07T03:47:12;39.90;;;37.85;;
33644;SDS011;19986;48.190;16.366;2023-05-07T03:49:38;39.50;;;37.30;;
33644;SDS011;19986;48.190;16.366;2023-05-07T03:52:05;42.70;;;40.20;;
33644;SDS011;19986;48.190;16.366;2023-05-07T03:54:31;42.88;;;40.42;;
33644;SDS011;19986;48.190;16.366;2023-05-07T03:56:57;40.88;;;38.67;;
33644;SDS011;19986;48.190;16.366;2023-05-07T03:59:22;43.55;;;41.15;;
33644;SDS011;19986;48.190;16.366;2023-05-07T04:01:48;43.88;;;41.00;;
33644;SDS011;19986;48.190;16.366;2023-05-07T04:04:14;42.92;;;40.53;;
33644;SDS011;19986;48.190;16.366;2023-05-07T04:06:40;41.88;;;39.38;;
33644;SDS011;19986;48.190;16.366;2023-05-07T04:09:07;42.13;;;39.65;;
33644;SDS011;19986;48.190;16.366;2023-05-07T04:11:33;40.30;;;38.05;;
33644;SDS011;19986;48.190;16.366;2023-05-07T04:13:58;43.95;;;41.60;;
33644;SDS011;19986;48.190;16.366;2023-05-07T04:16:24;42.47;;;39.90;;
33644;SDS011;19986;48.190;16.366;2023-05-07T04:18:50;43.30;;;40.70;;
33644;SDS011;19986;48.190;16.366;2023-05-07T04:21:16;42.00;;;39.05;;
33644;SDS011;19986;48.190;16.366;2023-05-07T04:23:43;44.67;;;42.08;;
33644;SDS011;19986;48.190;16.366;2023-05-07T04:26:09;45.55;;;42.78;;
33644;SDS011;19986;48.190;16.366;2023-05-07T04:28:35;45.42;;;42.75;;
33644;SDS011;19986;48.190;16.366;2023-05-07T04:31:02;42.75;;;40.15;;
33644;SDS011;19986;48.190;16.366;2023-05-07T04:33:28;43.60;;;40.78;;
33644;SDS011;19986;48.190;16.366;2023-05-07T04:35:53;43.67;;;41.08;;
33644;SDS011;19986;48.190;16.366;2023-05-07T04:38:19;45.65;;;42.97;;
33644;SDS011;19986;48.190;16.366;2023-05-07T04:40:45;45.53;;;42.83;;
33644;SDS011;19986;48.190;16.366;2023-05-07T04:43:12;43.58;;;41.13;;
33644;SDS011;19986;48.190;16.366;2023-05-07T04:45:38;47.10;;;44.10;;
33644;SDS011;19986;48.190;16.366;2023-05-07T04:48:06;45.90;;;43.17;;
33644;SDS011;19986;48.190;16.366;2023-05-07T04:50:33;46.30;;;43.28;;
33644;SDS011;19986;48.190;16.366;2023-05-07T04:52:59;47.67;;;44.60;;
33644;SDS011;19986;48.190;16.366;2023-05-07T04:55:25;50.30;;;47.13;;
33644;SDS011;19986;48.190;16.366;2023-05-07T04:57:51;51.92;;;48.47;;
33644;SDS011;19986;48.190;16.366;2023-05-07T05:00:18;51.70;;;48.30;;
33644;SDS011;19986;48.190;16.366;2023-05-07T05:02:45;52.92;;;49.53;;
33644;SDS011;19986;48.190;16.366;2023-05-07T05:05:11;51.50;;;48.10;;
33644;SDS011;19986;48.190;16.366;2023-05-07T05:07:37;52.42;;;48.85;;
33644;SDS011;19986;48.190;16.366;2023-05-07T05:10:04;52.30;;;48.88;;
33644;SDS011;19986;48.190;16.366;2023-05-07T05:12:31;52.55;;;49.08;;
33644;SDS011;19986;48.190;16.366;2023-05-07T05:14:57;54.97;;;51.33;;
33644;SDS011;19986;48.190;16.366;2023-05-07T05:17:23;52.10;;;48.78;;
33644;SDS011;19986;48.190;16.366;2023-05-07T05:19:48;53.38;;;49.72;;
33644;SDS011;19986;48.190;16.366;2023-05-07T05:22:15;55.45;;;51.65;;
33644;SDS011;19986;48.190;16.366;2023-05-07T05:24:40;53.65;;;50.08;;
33644;SDS011;19986;48.190;16.366;2023-05-07T05:27:06;55.60;;;51.67;;
33644;SDS011;19986;48.190;16.366;2023-05-07T05:29:32;56.63;;;52.50;;
33644;SDS011;19986;48.190;16.366;2023-05-07T05:31:58;58.35;;;54.10;;
33644;SDS011;19986;48.190;16.366;2023-05-07T05:34:23;59.33;;;55.13;;
33644;SDS011;19986;48.190;16.366;2023-05-07T05:36:49;58.03;;;53.47;;
33644;SDS011;19986;48.190;16.366;2023-05-07T05:39:15;56.13;;;52.05;;
33644;SDS011;19986;48.190;16.366;2023-05-07T05:41:41;58.80;;;54.63;;
33644;SDS011;19986;48.190;16.366;2023-05-07T05:44:07;57.33;;;53.13;;
33644;SDS011;19986;48.190;16.366;2023-05-07T05:46:33;58.25;;;53.95;;
33644;SDS011;19986;48.190;16.366;2023-05-07T05:48:58;57.67;;;53.58;;
33644;SDS011;19986;48.190;16.366;2023-05-07T05:51:24;56.47;;;52.38;;
33644;SDS011;19986;48.190;16.366;2023-05-07T05:53:51;57.28;;;53.30;;
33644;SDS011;19986;48.190;16.366;2023-05-07T05:56:17;57.85;;;53.50;;
33644;SDS011;19986;48.190;16.366;2023-05-07T05:58:43;57.55;;;53.45;;
33644;SDS011;19986;48.190;16.366;2023-05-07T06:01:09;55.08;;;51.28;;
33644;SDS011;19986;48.190;16.366;2023-05-07T06:03:37;57.08;;;53.08;;
33644;SDS011;19986;48.190;16.366;2023-05-07T06:06:03;56.58;;;52.45;;
33644;SDS011;19986;48.190;16.366;2023-05-07T06:08:29;56.42;;;52.53;;
33644;SDS011;19986;48.190;16.366;2023-05-07T06:10:55;56.60;;;52.45;;
33644;SDS011;19986;48.190;16.366;2023-05-07T06:13:21;56.55;;;52.58;;
33644;SDS011;19986;48.190;16.366;2023-05-07T06:15:48;56.22;;;52.40;;
33644;SDS011;19986;48.190;16.366;2023-05-07T06:18:14;57.05;;;53.13;;
33644;SDS011;19986;48.190;16.366;2023-05-07T06:20:40;56.95;;;52.78;;
33644;SDS011;19986;48.190;16.366;2023-05-07T06:23:06;56.95;;;52.78;;
33644;SDS011;19986;48.190;16.366;2023-05-07T06:25:32;56.60;;;52.55;;
33644;SDS011;19986;48.190;16.366;2023-05-07T06:27:57;57.47;;;53.47;;
33644;SDS011;19986;48.190;16.366;2023-05-07T06:30:23;55.65;;;51.63;;
33644;SDS011;19986;48.190;16.366;2023-05-07T06:32:49;56.92;;;52.92;;
33644;SDS011;19986;48.190;16.366;2023-05-07T06:35:15;54.65;;;50.53;;
33644;SDS011;19986;48.190;16.366;2023-05-07T06:37:41;57.47;;;53.40;;
33644;SDS011;19986;48.190;16.366;2023-05-07T06:40:10;55.28;;;51.22;;
33644;SDS011;19986;48.190;16.366;2023-05-07T06:42:36;57.60;;;53.47;;
33644;SDS011;19986;48.190;16.366;2023-05-07T06:45:02;55.78;;;51.88;;
33644;SDS011;19986;48.190;16.366;2023-05-07T06:47:29;56.13;;;52.15;;
33644;SDS011;19986;48.190;16.366;2023-05-07T06:49:55;55.90;;;52.00;;
33644;SDS011;19986;48.190;16.366;2023-05-07T06:52:21;55.25;;;51.25;;
33644;SDS011;19986;48.190;16.366;2023-05-07T06:54:46;55.95;;;51.83;;
33644;SDS011;19986;48.190;16.366;2023-05-07T06:57:12;57.05;;;53.05;;
33644;SDS011;19986;48.190;16.366;2023-05-07T06:59:38;55.03;;;51.03;;
33644;SDS011;19986;48.190;16.366;2023-05-07T07:02:04;56.33;;;52.33;;
33644;SDS011;19986;48.190;16.366;2023-05-07T07:04:31;55.83;;;51.90;;
33644;SDS011;19986;48.190;16.366;2023-05-07T07:06:56;56.65;;;52.72;;
33644;SDS011;19986;48.190;16.366;2023-05-07T07:09:22;56.22;;;52.22;;
33644;SDS011;19986;48.190;16.366;2023-05-07T07:11:48;56.17;;;52.17;;
33644;SDS011;19986;48.190;16.366;2023-05-07T07:14:14;57.70;;;53.70;;
33644;SDS011;19986;48.190;16.366;2023-05-07T07:16:40;57.63;;;53.53;;
33644;SDS011;19986;48.190;16.366;2023-05-07T07:19:06;58.72;;;54.50;;
33644;SDS011;19986;48.190;16.366;2023-05-07T07:21:32;54.92;;;51.05;;
33644;SDS011;19986;48.190;16.366;2023-05-07T07:23:57;56.00;;;52.10;;
33644;SDS011;19986;48.190;16.366;2023-05-07T07:26:23;56.67;;;52.78;;
33644;SDS011;19986;48.190;16.366;2023-05-07T07:28:49;55.10;;;51.20;;
33644;SDS011;19986;48.190;16.366;2023-05-07T07:31:15;55.40;;;51.60;;
33644;SDS011;19986;48.190;16.366;2023-05-07T07:33:41;53.75;;;50.15;;
33644;SDS011;19986;48.190;16.366;2023-05-07T07:36:07;54.17;;;50.13;;
33644;SDS011;19986;48.190;16.366;2023-05-07T07:38:33;58.60;;;54.60;;
33644;SDS011;19986;48.190;16.366;2023-05-07T07:40:59;55.35;;;51.45;;
33644;SDS011;19986;48.190;16.366;2023-05-07T07:43:25;54.72;;;51.00;;
33644;SDS011;19986;48.190;16.366;2023-05-07T07:45:51;54.88;;;51.15;;
33644;SDS011;19986;48.190;16.366;2023-05-07T07:48:17;55.70;;;51.80;;
33644;SDS011;19986;48.190;16.366;2023-05-07T07:50:43;51.95;;;48.35;;
33644;SDS011;19986;48.190;16.366;2023-05-07T07:53:09;52.85;;;49.15;;
33644;SDS011;19986;48.190;16.366;2023-05-07T07:55:38;54.92;;;50.97;;
33644;SDS011;19986;48.190;16.366;2023-05-07T07:58:04;53.80;;;49.83;;
33644;SDS011;19986;48.190;16.366;2023-05-07T08:00:31;54.92;;;51.25;;
33644;SDS011;19986;48.190;16.366;2023-05-07T08:02:57;52.92;;;49.28;;
33644;SDS011;19986;48.190;16.366;2023-05-07T08:05:23;51.25;;;47.63;;
33644;SDS011;19986;48.190;16.366;2023-05-07T08:07:50;53.50;;;49.70;;
33644;SDS011;19986;48.190;16.366;2023-05-07T08:10:19;54.22;;;50.42;;
33644;SDS011;19986;48.190;16.366;2023-05-07T08:12:48;55.30;;;51.25;;
33644;SDS011;19986;48.190;16.366;2023-05-07T08:15:15;54.67;;;50.80;;
33644;SDS011;19986;48.190;16.366;2023-05-07T08:17:41;55.03;;;51.33;;
33644;SDS011;19986;48.190;16.366;2023-05-07T08:20:07;53.72;;;49.97;;
33644;SDS011;19986;48.190;16.366;2023-05-07T08:22:34;52.25;;;48.55;;
33644;SDS011;19986;48.190;16.366;2023-05-07T08:25:01;53.95;;;50.25;;
33644;SDS011;19986;48.190;16.366;2023-05-07T08:27:27;53.53;;;49.72;;
33644;SDS011;19986;48.190;16.366;2023-05-07T08:29:53;48.80;;;45.60;;
33644;SDS011;19986;48.190;16.366;2023-05-07T08:32:20;48.47;;;45.28;;
33644;SDS011;19986;48.190;16.366;2023-05-07T08:34:46;50.33;;;47.05;;
33644;SDS011;19986;48.190;16.366;2023-05-07T08:37:13;48.38;;;44.97;;
33644;SDS011;19986;48.190;16.366;2023-05-07T08:39:39;49.20;;;45.78;;
33644;SDS011;19986;48.190;16.366;2023-05-07T08:42:04;47.47;;;44.38;;
33644;SDS011;19986;48.190;16.366;2023-05-07T08:44:33;50.00;;;46.70;;
33644;SDS011;19986;48.190;16.366;2023-05-07T08:47:02;49.17;;;45.92;;
33644;SDS011;19986;48.190;16.366;2023-05-07T08:49:31;47.75;;;44.60;;
33644;SDS011;19986;48.190;16.366;2023-05-07T08:51:59;49.08;;;45.90;;
33644;SDS011;19986;48.190;16.366;2023-05-07T08:54:26;48.33;;;45.13;;
33644;SDS011;19986;48.190;16.366;2023-05-07T08:56:54;48.78;;;45.67;;
33644;SDS011;19986;48.190;16.366;2023-05-07T08:59:20;48.05;;;44.80;;
33644;SDS011;19986;48.190;16.366;2023-05-07T09:01:46;48.58;;;45.35;;
33644;SDS011;19986;48.190;16.366;2023-05-07T09:04:12;48.13;;;45.03;;
33644;SDS011;19986;48.190;16.366;2023-05-07T09:06:38;46.17;;;43.17;;
33644;SDS011;19986;48.190;16.366;2023-05-07T09:09:07;45.85;;;42.95;;
33644;SDS011;19986;48.190;16.366;2023-05-07T09:11:33;44.97;;;42.22;;
33644;SDS011;19986;48.190;16.366;2023-05-07T09:13:59;46.05;;;43.03;;
33644;SDS011;19986;48.190;16.366;2023-05-07T09:16:26;44.33;;;41.42;;
33644;SDS011;19986;48.190;16.366;2023-05-07T09:18:53;45.47;;;42.55;;
33644;SDS011;19986;48.190;16.366;2023-05-07T09:21:21;46.60;;;43.55;;
33644;SDS011;19986;48.190;16.366;2023-05-07T09:23:51;46.25;;;43.25;;
33644;SDS011;19986;48.190;16.366;2023-05-07T09:26:20;44.70;;;41.90;;
33644;SDS011;19986;48.190;16.366;2023-05-07T09:28:47;46.58;;;43.70;;
33644;SDS011;19986;48.190;16.366;2023-05-07T09:31:13;44.00;;;41.17;;
33644;SDS011;19986;48.190;16.366;2023-05-07T09:33:39;45.38;;;42.50;;
33644;SDS011;19986;48.190;16.366;2023-05-07T09:36:05;42.97;;;40.25;;
33644;SDS011;19986;48.190;16.366;2023-05-07T09:38:33;43.15;;;40.45;;
33644;SDS011;19986;48.190;16.366;2023-05-07T09:41:03;42.13;;;39.53;;
33644;SDS011;19986;48.190;16.366;2023-05-07T09:43:34;39.10;;;36.70;;
33644;SDS011;19986;48.190;16.366;2023-05-07T09:46:08;42.20;;;39.47;;
33644;SDS011;19986;48.190;16.366;2023-05-07T09:48:38;41.95;;;39.20;;
33644;SDS011;19986;48.190;16.366;2023-05-07T09:54:02;41.17;;;38.78;;
33644;SDS011;19986;48.190;16.366;2023-05-07T09:56:32;41.35;;;38.85;;
33644;SDS011;19986;48.190;16.366;2023-05-07T09:59:01;42.05;;;39.25;;
33644;SDS011;19986;48.190;16.366;2023-05-07T10:01:30;41.95;;;39.42;;
33644;SDS011;19986;48.190;16.366;2023-05-07T10:03:56;40.58;;;38.08;;
33644;SDS011;19986;48.190;16.366;2023-05-07T10:06:24;39.67;;;37.38;;
33644;SDS011;19986;48.190;16.366;2023-05-07T10:08:51;39.00;;;36.65;;
33644;SDS011;19986;48.190;16.366;2023-05-07T10:11:18;38.80;;;36.47;;
33644;SDS011;19986;48.190;16.366;2023-05-07T10:13:44;39.85;;;37.53;;
33644;SDS011;19986;48.190;16.366;2023-05-07T10:16:12;40.80;;;38.30;;
33644;SDS011;19986;48.190;16.366;2023-05-07T10:18:41;40.95;;;38.47;;
33644;SDS011;19986;48.190;16.366;2023-05-07T10:21:08;40.65;;;38.15;;
33644;SDS011;19986;48.190;16.366;2023-05-07T10:23:41;39.55;;;37.25;;
33644;SDS011;19986;48.190;16.366;2023-05-07T10:26:10;39.17;;;36.88;;
33644;SDS011;19986;48.190;16.366;2023-05-07T10:28:38;40.42;;;38.08;;
33644;SDS011;19986;48.190;16.366;2023-05-07T10:31:17;38.97;;;36.67;;
33644;SDS011;19986;48.190;16.366;2023-05-07T10:34:03;46.17;;;43.10;;
33644;SDS011;19986;48.190;16.366;2023-05-07T10:36:38;40.97;;;38.55;;
33644;SDS011;19986;48.190;16.366;2023-05-07T10:39:05;39.85;;;37.45;;
33644;SDS011;19986;48.190;16.366;2023-05-07T10:41:31;40.70;;;38.25;;
33644;SDS011;19986;48.190;16.366;2023-05-07T10:43:57;39.70;;;37.25;;
33644;SDS011;19986;48.190;16.366;2023-05-07T10:46:26;39.33;;;36.92;;
33644;SDS011;19986;48.190;16.366;2023-05-07T10:51:28;41.17;;;38.72;;
33644;SDS011;19986;48.190;16.366;2023-05-07T10:56:35;39.88;;;37.55;;
33644;SDS011;19986;48.190;16.366;2023-05-07T11:02:02;41.58;;;39.00;;
33644;SDS011;19986;48.190;16.366;2023-05-07T11:04:29;40.47;;;38.08;;
33644;SDS011;19986;48.190;16.366;2023-05-07T11:12:16;39.80;;;37.38;;
33644;SDS011;19986;48.190;16.366;2023-05-07T11:15:08;40.20;;;37.80;;
33644;SDS011;19986;48.190;16.366;2023-05-07T11:17:55;41.90;;;39.33;;
33644;SDS011;19986;48.190;16.366;2023-05-07T11:26:05;40.13;;;37.72;;
33644;SDS011;19986;48.190;16.366;2023-05-07T11:28:39;40.17;;;37.72;;
33644;SDS011;19986;48.190;16.366;2023-05-07T11:31:06;40.15;;;37.80;;
33644;SDS011;19986;48.190;16.366;2023-05-07T11:33:33;39.03;;;36.63;;
33644;SDS011;19986;48.190;16.366;2023-05-07T11:36:00;36.47;;;34.22;;
33644;SDS011;19986;48.190;16.366;2023-05-07T11:38:28;39.85;;;37.55;;
33644;SDS011;19986;48.190;16.366;2023-05-07T11:40:59;38.38;;;35.97;;
33644;SDS011;19986;48.190;16.366;2023-05-07T11:43:26;39.15;;;36.85;;
33644;SDS011;19986;48.190;16.366;2023-05-07T11:45:52;37.95;;;35.75;;
33644;SDS011;19986;48.190;16.366;2023-05-07T11:48:18;38.72;;;36.47;;
33644;SDS011;19986;48.190;16.366;2023-05-07T11:50:52;39.95;;;37.65;;
33644;SDS011;19986;48.190;16.366;2023-05-07T11:53:25;39.78;;;37.25;;
33644;SDS011;19986;48.190;16.366;2023-05-07T11:55:52;37.72;;;35.47;;
33644;SDS011;19986;48.190;16.366;2023-05-07T11:58:23;38.65;;;36.45;;
33644;SDS011;19986;48.190;16.366;2023-05-07T12:00:53;38.13;;;35.92;;
33644;SDS011;19986;48.190;16.366;2023-05-07T12:03:20;39.85;;;37.45;;
33644;SDS011;19986;48.190;16.366;2023-05-07T12:05:46;38.30;;;36.15;;
33644;SDS011;19986;48.190;16.366;2023-05-07T12:08:16;39.40;;;36.90;;
33644;SDS011;19986;48.190;16.366;2023-05-07T12:10:43;40.13;;;37.63;;
33644;SDS011;19986;48.190;16.366;2023-05-07T12:13:22;39.20;;;36.85;;
33644;SDS011;19986;48.190;16.366;2023-05-07T12:15:53;38.75;;;36.38;;
33644;SDS011;19986;48.190;16.366;2023-05-07T12:18:21;41.03;;;38.42;;
33644;SDS011;19986;48.190;16.366;2023-05-07T12:20:47;39.28;;;36.97;;
33644;SDS011;19986;48.190;16.366;2023-05-07T12:23:13;41.00;;;38.50;;
33644;SDS011;19986;48.190;16.366;2023-05-07T12:25:40;38.63;;;36.38;;
33644;SDS011;19986;48.190;16.366;2023-05-07T12:28:16;39.47;;;37.03;;
33644;SDS011;19986;48.190;16.366;2023-05-07T12:30:43;40.08;;;37.63;;
33644;SDS011;19986;48.190;16.366;2023-05-07T12:33:10;40.70;;;38.15;;
33644;SDS011;19986;48.190;16.366;2023-05-07T12:35:37;40.25;;;37.92;;
33644;SDS011;19986;48.190;16.366;2023-05-07T12:38:11;38.67;;;36.28;;
33644;SDS011;19986;48.190;16.366;2023-05-07T12:43:26;41.53;;;39.13;;
33644;SDS011;19986;48.190;16.366;2023-05-07T12:45:56;39.42;;;37.05;;
33644;SDS011;19986;48.190;16.366;2023-05-07T12:48:24;38.35;;;36.10;;
33644;SDS011;19986;48.190;16.366;2023-05-07T12:50:55;38.58;;;36.35;;
33644;SDS011;19986;48.190;16.366;2023-05-07T12:53:23;40.15;;;37.75;;
33644;SDS011;19986;48.190;16.366;2023-05-07T12:55:56;40.08;;;37.78;;
33644;SDS011;19986;48.190;16.366;2023-05-07T12:58:27;41.10;;;38.55;;
33644;SDS011;19986;48.190;16.366;2023-05-07T13:00:56;38.63;;;36.00;;
33644;SDS011;19986;48.190;16.366;2023-05-07T13:05:52;38.72;;;36.55;;
33644;SDS011;19986;48.190;16.366;2023-05-07T13:08:26;38.25;;;36.15;;
33644;SDS011;19986;48.190;16.366;2023-05-07T13:10:57;39.58;;;37.42;;
33644;SDS011;19986;48.190;16.366;2023-05-07T13:13:24;39.05;;;36.75;;
33644;SDS011;19986;48.190;16.366;2023-05-07T13:15:50;37.88;;;35.78;;
33644;SDS011;19986;48.190;16.366;2023-05-07T13:18:16;40.47;;;38.13;;
33644;SDS011;19986;48.190;16.366;2023-05-07T13:20:42;38.15;;;35.95;;
33644;SDS011;19986;48.190;16.366;2023-05-07T13:23:08;37.90;;;35.80;;
33644;SDS011;19986;48.190;16.366;2023-05-07T13:25:34;40.03;;;37.72;;
33644;SDS011;19986;48.190;16.366;2023-05-07T13:28:00;39.13;;;36.92;;
33644;SDS011;19986;48.190;16.366;2023-05-07T13:30:26;38.42;;;36.33;;
33644;SDS011;19986;48.190;16.366;2023-05-07T13:32:53;38.60;;;36.50;;
33644;SDS011;19986;48.190;16.366;2023-05-07T13:35:21;38.40;;;36.05;;
33644;SDS011;19986;48.190;16.366;2023-05-07T13:37:47;37.35;;;35.35;;
33644;SDS011;19986;48.190;16.366;2023-05-07T13:40:17;38.33;;;36.15;;
33644;SDS011;19986;48.190;16.366;2023-05-07T13:42:44;36.13;;;34.22;;
33644;SDS011;19986;48.190;16.366;2023-05-07T13:45:10;37.80;;;35.80;;
33644;SDS011;19986;48.190;16.366;2023-05-07T13:47:42;37.42;;;35.22;;
33644;SDS011;19986;48.190;16.366;2023-05-07T13:50:08;37.70;;;35.65;;
33644;SDS011;19986;48.190;16.366;2023-05-07T13:52:36;38.22;;;36.08;;
33644;SDS011;19986;48.190;16.366;2023-05-07T13:55:03;36.13;;;34.13;;
33644;SDS011;19986;48.190;16.366;2023-05-07T13:57:29;36.53;;;34.53;;
33644;SDS011;19986;48.190;16.366;2023-05-07T13:59:55;39.60;;;37.38;;
33644;SDS011;19986;48.190;16.366;2023-05-07T14:02:21;39.35;;;36.95;;
33644;SDS011;19986;48.190;16.366;2023-05-07T14:04:46;37.33;;;35.15;;
33644;SDS011;19986;48.190;16.366;2023-05-07T14:07:12;40.25;;;38.00;;
33644;SDS011;19986;48.190;16.366;2023-05-07T14:09:38;36.83;;;34.80;;
33644;SDS011;19986;48.190;16.366;2023-05-07T14:12:04;37.65;;;35.50;;
33644;SDS011;19986;48.190;16.366;2023-05-07T14:14:30;37.35;;;35.20;;
33644;SDS011;19986;48.190;16.366;2023-05-07T14:16:56;37.55;;;35.25;;
33644;SDS011;19986;48.190;16.366;2023-05-07T14:19:22;38.22;;;36.22;;
33644;SDS011;19986;48.190;16.366;2023-05-07T14:21:48;37.78;;;35.78;;
33644;SDS011;19986;48.190;16.366;2023-05-07T14:24:14;37.55;;;35.65;;
33644;SDS011;19986;48.190;16.366;2023-05-07T14:26:40;37.17;;;35.17;;
33644;SDS011;19986;48.190;16.366;2023-05-07T14:29:06;37.03;;;35.03;;
33644;SDS011;19986;48.190;16.366;2023-05-07T14:31:32;36.42;;;34.35;;
33644;SDS011;19986;48.190;16.366;2023-05-07T14:33:58;37.40;;;35.40;;